sensor_id;sensor_type;location;lat;lon;timestamp;P1;durP1;ratioP1;P2;durP2;ratioP2
2860;SDS011;1438;50.922;6.704;2023-07-20T00:02:20;5.30;;;3.77;;
2860;SDS011;1438;50.922;6.704;2023-07-20T00:04:46;4.73;;;3.87;;
2860;SDS011;1438;50.922;6.704;2023-07-20T00:07:11;9.33;;;3.87;;
2860;SDS011;1438;50.922;6.704;2023-07-20T00:09:37;7.60;;;4.20;;
2860;SDS011;1438;50.922;6.704;2023-07-20T00:12:02;9.80;;;4.27;;
2860;SDS011;1438;50.922;6.704;2023-07-20T00:14:28;8.23;;;4.33;;
2860;SDS011;1438;50.922;6.704;2023-07-20T00:16:54;7.27;;;3.90;;
2860;SDS011;1438;50.922;6.704;2023-07-20T00:19:23;11.97;;;3.80;;
2860;SDS011;1438;50.922;6.704;2023-07-20T00:21:50;10.07;;;4.10;;
2860;SDS011;1438;50.922;6.704;2023-07-20T00:24:16;5.60;;;3.77;;
2860;SDS011;1438;50.922;6.704;2023-07-20T00:26:41;11.80;;;4.40;;
2860;SDS011;1438;50.922;6.704;2023-07-20T00:29:07;9.70;;;4.20;;
2860;SDS011;1438;50.922;6.704;2023-07-20T00:31:33;4.33;;;3.90;;
2860;SDS011;1438;50.922;6.704;2023-07-20T00:34:00;6.63;;;3.80;;
2860;SDS011;1438;50.922;6.704;2023-07-20T00:36:25;9.87;;;5.00;;
2860;SDS011;1438;50.922;6.704;2023-07-20T00:38:51;7.13;;;4.20;;
2860;SDS011;1438;50.922;6.704;2023-07-20T00:41:16;4.73;;;3.87;;
2860;SDS011;1438;50.922;6.704;2023-07-20T00:43:42;5.27;;;3.83;;
2860;SDS011;1438;50.922;6.704;2023-07-20T00:46:08;5.17;;;3.70;;
2860;SDS011;1438;50.922;6.704;2023-07-20T00:48:34;10.60;;;4.40;;
2860;SDS011;1438;50.922;6.704;2023-07-20T00:51:00;8.17;;;4.07;;
2860;SDS011;1438;50.922;6.704;2023-07-20T00:53:27;8.43;;;3.53;;
2860;SDS011;1438;50.922;6.704;2023-07-20T00:55:55;5.10;;;3.43;;
2860;SDS011;1438;50.922;6.704;2023-07-20T00:58:21;5.83;;;3.60;;
2860;SDS011;1438;50.922;6.704;2023-07-20T01:00:48;7.40;;;3.70;;
2860;SDS011;1438;50.922;6.704;2023-07-20T01:03:14;4.03;;;3.20;;
2860;SDS011;1438;50.922;6.704;2023-07-20T01:09:03;7.00;;;3.80;;
2860;SDS011;1438;50.922;6.704;2023-07-20T01:14:22;6.17;;;3.53;;
2860;SDS011;1438;50.922;6.704;2023-07-20T01:16:49;5.20;;;3.07;;
2860;SDS011;1438;50.922;6.704;2023-07-20T01:19:17;8.27;;;3.93;;
2860;SDS011;1438;50.922;6.704;2023-07-20T01:21:57;5.53;;;3.70;;
2860;SDS011;1438;50.922;6.704;2023-07-20T01:30:13;6.53;;;4.03;;
2860;SDS011;1438;50.922;6.704;2023-07-20T01:32:48;6.60;;;4.70;;
2860;SDS011;1438;50.922;6.704;2023-07-20T01:35:15;5.00;;;3.90;;
2860;SDS011;1438;50.922;6.704;2023-07-20T01:37:43;5.07;;;3.90;;
2860;SDS011;1438;50.922;6.704;2023-07-20T01:40:11;7.50;;;4.67;;
2860;SDS011;1438;50.922;6.704;2023-07-20T01:42:42;5.43;;;3.57;;
2860;SDS011;1438;50.922;6.704;2023-07-20T01:45:10;6.93;;;4.37;;
2860;SDS011;1438;50.922;6.704;2023-07-20T01:47:35;5.90;;;4.00;;
2860;SDS011;1438;50.922;6.704;2023-07-20T01:50:01;5.90;;;3.70;;
2860;SDS011;1438;50.922;6.704;2023-07-20T01:52:26;6.30;;;4.30;;
2860;SDS011;1438;50.922;6.704;2023-07-20T01:54:52;6.53;;;4.47;;
2860;SDS011;1438;50.922;6.704;2023-07-20T01:57:17;6.17;;;4.73;;
2860;SDS011;1438;50.922;6.704;2023-07-20T01:59:43;7.53;;;4.43;;
2860;SDS011;1438;50.922;6.704;2023-07-20T02:02:09;7.30;;;4.27;;
2860;SDS011;1438;50.922;6.704;2023-07-20T02:04:34;5.77;;;4.90;;
2860;SDS011;1438;50.922;6.704;2023-07-20T02:07:00;6.80;;;4.60;;
2860;SDS011;1438;50.922;6.704;2023-07-20T02:09:26;6.90;;;4.90;;
2860;SDS011;1438;50.922;6.704;2023-07-20T02:11:52;9.07;;;5.07;;
2860;SDS011;1438;50.922;6.704;2023-07-20T02:14:17;10.10;;;5.07;;
2860;SDS011;1438;50.922;6.704;2023-07-20T02:16:43;6.50;;;5.00;;
2860;SDS011;1438;50.922;6.704;2023-07-20T02:19:08;7.10;;;4.83;;
2860;SDS011;1438;50.922;6.704;2023-07-20T02:21:34;8.67;;;5.00;;
2860;SDS011;1438;50.922;6.704;2023-07-20T02:23:59;7.87;;;4.70;;
2860;SDS011;1438;50.922;6.704;2023-07-20T02:26:25;5.13;;;4.70;;
2860;SDS011;1438;50.922;6.704;2023-07-20T02:28:51;8.23;;;6.10;;
2860;SDS011;1438;50.922;6.704;2023-07-20T02:31:16;8.33;;;5.30;;
2860;SDS011;1438;50.922;6.704;2023-07-20T02:33:42;9.93;;;5.90;;
2860;SDS011;1438;50.922;6.704;2023-07-20T02:36:07;6.60;;;5.37;;
2860;SDS011;1438;50.922;6.704;2023-07-20T02:38:33;6.63;;;4.60;;
2860;SDS011;1438;50.922;6.704;2023-07-20T02:40:58;7.17;;;5.20;;
2860;SDS011;1438;50.922;6.704;2023-07-20T02:43:24;9.67;;;5.00;;
2860;SDS011;1438;50.922;6.704;2023-07-20T02:45:50;6.37;;;4.60;;
2860;SDS011;1438;50.922;6.704;2023-07-20T02:48:15;6.50;;;5.23;;
2860;SDS011;1438;50.922;6.704;2023-07-20T02:50:41;8.80;;;6.43;;
2860;SDS011;1438;50.922;6.704;2023-07-20T02:53:08;11.30;;;5.53;;
2860;SDS011;1438;50.922;6.704;2023-07-20T02:55:34;10.30;;;4.80;;
2860;SDS011;1438;50.922;6.704;2023-07-20T02:57:59;5.43;;;4.57;;
2860;SDS011;1438;50.922;6.704;2023-07-20T03:00:25;8.67;;;4.73;;
2860;SDS011;1438;50.922;6.704;2023-07-20T03:02:51;9.33;;;5.60;;
2860;SDS011;1438;50.922;6.704;2023-07-20T03:05:20;5.80;;;4.83;;
2860;SDS011;1438;50.922;6.704;2023-07-20T03:07:48;6.97;;;4.20;;
2860;SDS011;1438;50.922;6.704;2023-07-20T03:10:14;9.03;;;4.60;;
2860;SDS011;1438;50.922;6.704;2023-07-20T03:12:39;7.20;;;4.70;;
2860;SDS011;1438;50.922;6.704;2023-07-20T03:15:06;8.97;;;4.90;;
2860;SDS011;1438;50.922;6.704;2023-07-20T03:17:32;5.90;;;3.43;;
2860;SDS011;1438;50.922;6.704;2023-07-20T03:19:57;8.90;;;4.30;;
2860;SDS011;1438;50.922;6.704;2023-07-20T03:22:24;8.97;;;4.10;;
2860;SDS011;1438;50.922;6.704;2023-07-20T03:24:50;6.00;;;3.80;;
2860;SDS011;1438;50.922;6.704;2023-07-20T03:27:17;6.57;;;4.00;;
2860;SDS011;1438;50.922;6.704;2023-07-20T03:29:43;6.50;;;3.70;;
2860;SDS011;1438;50.922;6.704;2023-07-20T03:32:09;11.33;;;4.13;;
2860;SDS011;1438;50.922;6.704;2023-07-20T03:34:35;5.10;;;4.03;;
2860;SDS011;1438;50.922;6.704;2023-07-20T03:37:00;8.90;;;3.80;;
2860;SDS011;1438;50.922;6.704;2023-07-20T03:39:26;5.33;;;4.00;;
2860;SDS011;1438;50.922;6.704;2023-07-20T03:41:52;9.63;;;3.53;;
2860;SDS011;1438;50.922;6.704;2023-07-20T03:44:17;5.23;;;3.77;;
2860;SDS011;1438;50.922;6.704;2023-07-20T03:46:43;6.10;;;3.80;;
2860;SDS011;1438;50.922;6.704;2023-07-20T03:49:09;10.03;;;3.80;;
2860;SDS011;1438;50.922;6.704;2023-07-20T03:51:35;8.73;;;3.70;;
2860;SDS011;1438;50.922;6.704;2023-07-20T03:54:01;18.20;;;4.53;;
2860;SDS011;1438;50.922;6.704;2023-07-20T03:56:27;6.70;;;3.37;;
2860;SDS011;1438;50.922;6.704;2023-07-20T03:58:53;6.03;;;4.07;;
2860;SDS011;1438;50.922;6.704;2023-07-20T04:01:19;10.83;;;3.90;;
2860;SDS011;1438;50.922;6.704;2023-07-20T04:03:44;7.67;;;3.60;;
2860;SDS011;1438;50.922;6.704;2023-07-20T04:06:10;5.70;;;3.70;;
2860;SDS011;1438;50.922;6.704;2023-07-20T04:08:36;7.83;;;3.80;;
2860;SDS011;1438;50.922;6.704;2023-07-20T04:11:02;5.73;;;3.83;;
2860;SDS011;1438;50.922;6.704;2023-07-20T04:13:28;12.27;;;4.73;;
2860;SDS011;1438;50.922;6.704;2023-07-20T04:15:53;6.37;;;4.03;;
2860;SDS011;1438;50.922;6.704;2023-07-20T04:18:20;7.10;;;4.07;;
2860;SDS011;1438;50.922;6.704;2023-07-20T04:20:45;7.23;;;4.10;;
2860;SDS011;1438;50.922;6.704;2023-07-20T04:23:11;5.70;;;3.60;;
2860;SDS011;1438;50.922;6.704;2023-07-20T04:25:38;7.80;;;4.07;;
2860;SDS011;1438;50.922;6.704;2023-07-20T04:28:08;10.33;;;3.90;;
2860;SDS011;1438;50.922;6.704;2023-07-20T04:30:34;9.13;;;5.13;;
2860;SDS011;1438;50.922;6.704;2023-07-20T04:33:01;12.13;;;5.83;;
2860;SDS011;1438;50.922;6.704;2023-07-20T04:35:46;7.73;;;4.30;;
2860;SDS011;1438;50.922;6.704;2023-07-20T04:38:16;15.43;;;4.93;;
2860;SDS011;1438;50.922;6.704;2023-07-20T04:40:42;10.60;;;4.80;;
2860;SDS011;1438;50.922;6.704;2023-07-20T04:43:12;7.30;;;4.70;;
2860;SDS011;1438;50.922;6.704;2023-07-20T04:45:38;7.80;;;4.50;;
2860;SDS011;1438;50.922;6.704;2023-07-20T04:48:06;8.73;;;4.73;;
2860;SDS011;1438;50.922;6.704;2023-07-20T04:50:35;6.80;;;4.30;;
2860;SDS011;1438;50.922;6.704;2023-07-20T04:53:01;10.53;;;4.57;;
2860;SDS011;1438;50.922;6.704;2023-07-20T04:55:27;6.83;;;4.20;;
2860;SDS011;1438;50.922;6.704;2023-07-20T04:57:53;8.23;;;4.27;;
2860;SDS011;1438;50.922;6.704;2023-07-20T05:00:19;14.50;;;4.97;;
2860;SDS011;1438;50.922;6.704;2023-07-20T05:02:46;12.47;;;4.93;;
2860;SDS011;1438;50.922;6.704;2023-07-20T05:05:14;8.20;;;4.00;;
2860;SDS011;1438;50.922;6.704;2023-07-20T05:07:40;5.87;;;4.67;;
2860;SDS011;1438;50.922;6.704;2023-07-20T05:10:06;7.40;;;4.43;;
2860;SDS011;1438;50.922;6.704;2023-07-20T05:12:32;12.63;;;6.40;;
2860;SDS011;1438;50.922;6.704;2023-07-20T05:14:58;7.90;;;4.80;;
2860;SDS011;1438;50.922;6.704;2023-07-20T05:17:23;9.07;;;4.33;;
2860;SDS011;1438;50.922;6.704;2023-07-20T05:19:49;6.97;;;4.50;;
2860;SDS011;1438;50.922;6.704;2023-07-20T05:22:16;10.03;;;4.57;;
2860;SDS011;1438;50.922;6.704;2023-07-20T05:24:42;6.83;;;4.63;;
2860;SDS011;1438;50.922;6.704;2023-07-20T05:27:08;9.57;;;4.70;;
2860;SDS011;1438;50.922;6.704;2023-07-20T05:29:33;6.97;;;4.10;;
2860;SDS011;1438;50.922;6.704;2023-07-20T05:31:59;8.20;;;5.13;;
2860;SDS011;1438;50.922;6.704;2023-07-20T05:34:24;9.40;;;6.03;;
2860;SDS011;1438;50.922;6.704;2023-07-20T05:36:50;15.90;;;6.20;;
2860;SDS011;1438;50.922;6.704;2023-07-20T05:39:16;8.27;;;4.97;;
2860;SDS011;1438;50.922;6.704;2023-07-20T05:41:43;10.23;;;3.70;;
2860;SDS011;1438;50.922;6.704;2023-07-20T05:44:08;9.43;;;5.40;;
2860;SDS011;1438;50.922;6.704;2023-07-20T05:46:34;9.20;;;6.03;;
2860;SDS011;1438;50.922;6.704;2023-07-20T05:49:00;12.23;;;6.23;;
2860;SDS011;1438;50.922;6.704;2023-07-20T05:51:25;9.27;;;6.93;;
2860;SDS011;1438;50.922;6.704;2023-07-20T05:53:51;9.60;;;6.63;;
2860;SDS011;1438;50.922;6.704;2023-07-20T05:56:17;17.63;;;6.90;;
2860;SDS011;1438;50.922;6.704;2023-07-20T05:58:42;14.50;;;6.83;;
2860;SDS011;1438;50.922;6.704;2023-07-20T06:01:08;13.53;;;8.00;;
2860;SDS011;1438;50.922;6.704;2023-07-20T06:03:33;11.60;;;7.97;;
2860;SDS011;1438;50.922;6.704;2023-07-20T06:06:00;17.43;;;10.20;;
2860;SDS011;1438;50.922;6.704;2023-07-20T06:08:27;10.33;;;9.10;;
2860;SDS011;1438;50.922;6.704;2023-07-20T06:10:56;14.33;;;9.83;;
2860;SDS011;1438;50.922;6.704;2023-07-20T06:13:22;12.67;;;8.50;;
2860;SDS011;1438;50.922;6.704;2023-07-20T06:15:48;13.37;;;9.90;;
2860;SDS011;1438;50.922;6.704;2023-07-20T06:18:14;20.13;;;12.00;;
2860;SDS011;1438;50.922;6.704;2023-07-20T06:20:40;13.40;;;10.67;;
2860;SDS011;1438;50.922;6.704;2023-07-20T06:23:06;13.10;;;10.93;;
2860;SDS011;1438;50.922;6.704;2023-07-20T06:25:31;12.80;;;10.70;;
2860;SDS011;1438;50.922;6.704;2023-07-20T06:27:57;13.50;;;10.60;;
2860;SDS011;1438;50.922;6.704;2023-07-20T06:30:23;12.67;;;10.87;;
2860;SDS011;1438;50.922;6.704;2023-07-20T06:32:49;13.00;;;11.10;;
2860;SDS011;1438;50.922;6.704;2023-07-20T06:35:15;15.23;;;10.43;;
2860;SDS011;1438;50.922;6.704;2023-07-20T06:37:41;14.57;;;11.37;;
2860;SDS011;1438;50.922;6.704;2023-07-20T06:40:07;12.17;;;9.67;;
2860;SDS011;1438;50.922;6.704;2023-07-20T06:42:34;13.97;;;11.73;;
2860;SDS011;1438;50.922;6.704;2023-07-20T06:44:59;14.77;;;11.10;;
2860;SDS011;1438;50.922;6.704;2023-07-20T06:47:25;11.70;;;9.83;;
2860;SDS011;1438;50.922;6.704;2023-07-20T06:49:51;15.03;;;9.63;;
2860;SDS011;1438;50.922;6.704;2023-07-20T06:52:16;11.70;;;9.57;;
2860;SDS011;1438;50.922;6.704;2023-07-20T06:54:42;11.57;;;8.93;;
2860;SDS011;1438;50.922;6.704;2023-07-20T06:57:07;11.17;;;7.73;;
2860;SDS011;1438;50.922;6.704;2023-07-20T06:59:33;10.10;;;8.40;;
2860;SDS011;1438;50.922;6.704;2023-07-20T07:01:59;10.73;;;7.70;;
2860;SDS011;1438;50.922;6.704;2023-07-20T07:04:24;7.97;;;7.07;;
2860;SDS011;1438;50.922;6.704;2023-07-20T07:06:50;15.43;;;8.70;;
2860;SDS011;1438;50.922;6.704;2023-07-20T07:09:15;10.20;;;8.00;;
2860;SDS011;1438;50.922;6.704;2023-07-20T07:11:41;9.93;;;8.93;;
2860;SDS011;1438;50.922;6.704;2023-07-20T07:14:07;12.53;;;8.60;;
2860;SDS011;1438;50.922;6.704;2023-07-20T07:16:32;10.43;;;8.10;;
2860;SDS011;1438;50.922;6.704;2023-07-20T07:18:58;12.60;;;8.90;;
2860;SDS011;1438;50.922;6.704;2023-07-20T07:21:24;10.33;;;9.17;;
2860;SDS011;1438;50.922;6.704;2023-07-20T07:23:50;12.07;;;8.73;;
2860;SDS011;1438;50.922;6.704;2023-07-20T07:26:18;8.93;;;7.70;;
2860;SDS011;1438;50.922;6.704;2023-07-20T07:28:44;8.03;;;7.27;;
2860;SDS011;1438;50.922;6.704;2023-07-20T07:31:10;9.63;;;6.60;;
2860;SDS011;1438;50.922;6.704;2023-07-20T07:33:35;7.03;;;6.33;;
2860;SDS011;1438;50.922;6.704;2023-07-20T07:36:01;7.60;;;6.40;;
2860;SDS011;1438;50.922;6.704;2023-07-20T07:38:27;6.70;;;6.10;;
2860;SDS011;1438;50.922;6.704;2023-07-20T07:40:52;10.33;;;6.13;;
2860;SDS011;1438;50.922;6.704;2023-07-20T07:43:18;7.57;;;5.70;;
2860;SDS011;1438;50.922;6.704;2023-07-20T07:45:43;6.00;;;5.30;;
2860;SDS011;1438;50.922;6.704;2023-07-20T07:48:09;8.03;;;6.00;;
2860;SDS011;1438;50.922;6.704;2023-07-20T07:50:37;7.60;;;5.50;;
2860;SDS011;1438;50.922;6.704;2023-07-20T07:53:04;6.43;;;4.20;;
2860;SDS011;1438;50.922;6.704;2023-07-20T07:55:29;6.40;;;5.50;;
2860;SDS011;1438;50.922;6.704;2023-07-20T07:57:55;6.60;;;4.27;;
2860;SDS011;1438;50.922;6.704;2023-07-20T08:00:21;7.70;;;5.27;;
2860;SDS011;1438;50.922;6.704;2023-07-20T08:02:46;5.63;;;4.73;;
2860;SDS011;1438;50.922;6.704;2023-07-20T08:05:15;5.23;;;4.43;;
2860;SDS011;1438;50.922;6.704;2023-07-20T08:07:41;5.30;;;4.40;;
2860;SDS011;1438;50.922;6.704;2023-07-20T08:10:08;5.10;;;4.67;;
2860;SDS011;1438;50.922;6.704;2023-07-20T08:12:33;4.83;;;4.37;;
2860;SDS011;1438;50.922;6.704;2023-07-20T08:14:59;8.03;;;4.33;;
2860;SDS011;1438;50.922;6.704;2023-07-20T08:17:25;9.57;;;5.03;;
2860;SDS011;1438;50.922;6.704;2023-07-20T08:19:50;6.20;;;4.77;;
2860;SDS011;1438;50.922;6.704;2023-07-20T08:22:16;6.10;;;4.33;;
2860;SDS011;1438;50.922;6.704;2023-07-20T08:24:42;5.57;;;4.27;;
2860;SDS011;1438;50.922;6.704;2023-07-20T08:27:08;4.23;;;3.83;;
2860;SDS011;1438;50.922;6.704;2023-07-20T08:29:35;5.97;;;3.43;;
2860;SDS011;1438;50.922;6.704;2023-07-20T08:32:02;3.53;;;2.73;;
2860;SDS011;1438;50.922;6.704;2023-07-20T08:34:29;6.30;;;4.77;;
2860;SDS011;1438;50.922;6.704;2023-07-20T08:36:55;5.53;;;3.00;;
2860;SDS011;1438;50.922;6.704;2023-07-20T08:39:21;4.27;;;3.53;;
2860;SDS011;1438;50.922;6.704;2023-07-20T08:41:48;5.47;;;4.17;;
2860;SDS011;1438;50.922;6.704;2023-07-20T08:44:14;6.90;;;5.60;;
2860;SDS011;1438;50.922;6.704;2023-07-20T08:46:40;6.57;;;4.60;;
2860;SDS011;1438;50.922;6.704;2023-07-20T08:49:07;6.70;;;5.37;;
2860;SDS011;1438;50.922;6.704;2023-07-20T08:51:33;5.43;;;4.93;;
2860;SDS011;1438;50.922;6.704;2023-07-20T08:54:01;6.43;;;4.40;;
2860;SDS011;1438;50.922;6.704;2023-07-20T08:56:27;10.63;;;4.40;;
2860;SDS011;1438;50.922;6.704;2023-07-20T08:58:54;5.00;;;4.37;;
2860;SDS011;1438;50.922;6.704;2023-07-20T09:01:21;8.27;;;5.07;;
2860;SDS011;1438;50.922;6.704;2023-07-20T09:03:47;4.40;;;3.60;;
2860;SDS011;1438;50.922;6.704;2023-07-20T09:06:14;4.63;;;4.10;;
2860;SDS011;1438;50.922;6.704;2023-07-20T09:08:48;5.67;;;3.40;;
2860;SDS011;1438;50.922;6.704;2023-07-20T09:11:17;2.60;;;2.40;;
2860;SDS011;1438;50.922;6.704;2023-07-20T09:13:43;4.17;;;3.50;;
2860;SDS011;1438;50.922;6.704;2023-07-20T09:16:09;2.90;;;2.50;;
2860;SDS011;1438;50.922;6.704;2023-07-20T09:18:39;5.40;;;3.17;;
2860;SDS011;1438;50.922;6.704;2023-07-20T09:21:05;5.03;;;2.30;;
2860;SDS011;1438;50.922;6.704;2023-07-20T09:23:32;3.13;;;2.60;;
2860;SDS011;1438;50.922;6.704;2023-07-20T09:26:14;3.43;;;3.10;;
2860;SDS011;1438;50.922;6.704;2023-07-20T09:28:48;5.07;;;3.33;;
2860;SDS011;1438;50.922;6.704;2023-07-20T09:31:16;5.70;;;3.37;;
2860;SDS011;1438;50.922;6.704;2023-07-20T09:33:42;4.43;;;3.67;;
2860;SDS011;1438;50.922;6.704;2023-07-20T09:36:09;4.30;;;3.30;;
2860;SDS011;1438;50.922;6.704;2023-07-20T09:38:36;5.73;;;3.27;;
2860;SDS011;1438;50.922;6.704;2023-07-20T09:41:04;5.57;;;3.43;;
2860;SDS011;1438;50.922;6.704;2023-07-20T09:43:30;5.23;;;3.87;;
2860;SDS011;1438;50.922;6.704;2023-07-20T09:45:57;4.33;;;3.30;;
2860;SDS011;1438;50.922;6.704;2023-07-20T09:48:24;3.30;;;3.00;;
2860;SDS011;1438;50.922;6.704;2023-07-20T09:50:51;4.90;;;3.47;;
2860;SDS011;1438;50.922;6.704;2023-07-20T09:53:18;4.10;;;3.70;;
2860;SDS011;1438;50.922;6.704;2023-07-20T09:55:45;4.70;;;3.70;;
2860;SDS011;1438;50.922;6.704;2023-07-20T09:58:12;6.73;;;3.60;;
2860;SDS011;1438;50.922;6.704;2023-07-20T10:00:39;4.50;;;3.30;;
2860;SDS011;1438;50.922;6.704;2023-07-20T10:03:10;3.13;;;2.20;;
2860;SDS011;1438;50.922;6.704;2023-07-20T10:05:39;3.10;;;2.70;;
2860;SDS011;1438;50.922;6.704;2023-07-20T10:08:09;3.70;;;2.63;;
2860;SDS011;1438;50.922;6.704;2023-07-20T10:10:37;2.80;;;2.00;;
2860;SDS011;1438;50.922;6.704;2023-07-20T10:13:05;3.37;;;2.73;;
2860;SDS011;1438;50.922;6.704;2023-07-20T10:15:43;2.50;;;2.23;;
2860;SDS011;1438;50.922;6.704;2023-07-20T10:20:54;3.00;;;2.50;;
2860;SDS011;1438;50.922;6.704;2023-07-20T10:23:21;1.90;;;1.70;;
2860;SDS011;1438;50.922;6.704;2023-07-20T10:25:48;3.10;;;2.20;;
2860;SDS011;1438;50.922;6.704;2023-07-20T10:28:16;4.83;;;2.13;;
2860;SDS011;1438;50.922;6.704;2023-07-20T10:30:41;2.10;;;2.00;;
2860;SDS011;1438;50.922;6.704;2023-07-20T10:33:08;3.70;;;2.43;;
2860;SDS011;1438;50.922;6.704;2023-07-20T10:38:19;2.70;;;2.03;;
2860;SDS011;1438;50.922;6.704;2023-07-20T10:41:02;2.77;;;1.73;;
2860;SDS011;1438;50.922;6.704;2023-07-20T10:43:28;2.27;;;1.70;;
2860;SDS011;1438;50.922;6.704;2023-07-20T10:45:53;3.90;;;1.60;;
2860;SDS011;1438;50.922;6.704;2023-07-20T10:48:20;5.77;;;1.50;;
2860;SDS011;1438;50.922;6.704;2023-07-20T10:53:39;2.13;;;1.60;;
2860;SDS011;1438;50.922;6.704;2023-07-20T10:56:06;3.23;;;1.47;;
2860;SDS011;1438;50.922;6.704;2023-07-20T10:58:42;1.30;;;1.20;;
2860;SDS011;1438;50.922;6.704;2023-07-20T11:01:07;2.17;;;1.50;;
2860;SDS011;1438;50.922;6.704;2023-07-20T11:03:34;1.10;;;1.00;;
2860;SDS011;1438;50.922;6.704;2023-07-20T11:08:56;1.27;;;1.13;;
2860;SDS011;1438;50.922;6.704;2023-07-20T11:11:30;1.77;;;1.40;;
2860;SDS011;1438;50.922;6.704;2023-07-20T11:13:58;1.10;;;1.00;;
2860;SDS011;1438;50.922;6.704;2023-07-20T11:16:32;3.63;;;1.53;;
2860;SDS011;1438;50.922;6.704;2023-07-20T11:18:58;2.60;;;1.53;;
2860;SDS011;1438;50.922;6.704;2023-07-20T11:21:24;2.20;;;1.17;;
2860;SDS011;1438;50.922;6.704;2023-07-20T11:23:51;2.53;;;1.20;;
2860;SDS011;1438;50.922;6.704;2023-07-20T11:26:18;2.70;;;1.43;;
2860;SDS011;1438;50.922;6.704;2023-07-20T11:28:48;6.30;;;1.23;;
2860;SDS011;1438;50.922;6.704;2023-07-20T11:31:14;1.27;;;1.10;;
2860;SDS011;1438;50.922;6.704;2023-07-20T11:33:43;1.43;;;1.00;;
2860;SDS011;1438;50.922;6.704;2023-07-20T11:36:09;2.90;;;1.10;;
2860;SDS011;1438;50.922;6.704;2023-07-20T11:38:34;5.60;;;1.00;;
2860;SDS011;1438;50.922;6.704;2023-07-20T11:41:00;2.40;;;1.10;;
2860;SDS011;1438;50.922;6.704;2023-07-20T11:43:28;1.33;;;1.23;;
2860;SDS011;1438;50.922;6.704;2023-07-20T11:45:55;2.33;;;1.20;;
2860;SDS011;1438;50.922;6.704;2023-07-20T11:48:21;1.83;;;1.50;;
2860;SDS011;1438;50.922;6.704;2023-07-20T11:50:47;1.47;;;1.37;;
2860;SDS011;1438;50.922;6.704;2023-07-20T11:53:13;1.53;;;1.43;;
2860;SDS011;1438;50.922;6.704;2023-07-20T11:55:39;2.17;;;1.30;;
2860;SDS011;1438;50.922;6.704;2023-07-20T11:58:06;2.83;;;1.40;;
2860;SDS011;1438;50.922;6.704;2023-07-20T12:00:33;2.10;;;1.50;;
2860;SDS011;1438;50.922;6.704;2023-07-20T12:03:00;1.93;;;1.20;;
2860;SDS011;1438;50.922;6.704;2023-07-20T12:05:26;2.00;;;1.10;;
2860;SDS011;1438;50.922;6.704;2023-07-20T12:07:52;2.60;;;1.20;;
2860;SDS011;1438;50.922;6.704;2023-07-20T12:10:25;1.70;;;1.30;;
2860;SDS011;1438;50.922;6.704;2023-07-20T12:12:53;3.00;;;1.53;;
2860;SDS011;1438;50.922;6.704;2023-07-20T12:17:49;1.80;;;1.70;;
2860;SDS011;1438;50.922;6.704;2023-07-20T12:20:27;1.77;;;1.60;;
2860;SDS011;1438;50.922;6.704;2023-07-20T12:23:00;1.63;;;1.30;;
2860;SDS011;1438;50.922;6.704;2023-07-20T12:25:36;1.33;;;1.23;;
2860;SDS011;1438;50.922;6.704;2023-07-20T12:28:11;1.50;;;1.20;;
2860;SDS011;1438;50.922;6.704;2023-07-20T12:30:39;1.77;;;0.90;;
2860;SDS011;1438;50.922;6.704;2023-07-20T12:33:05;1.50;;;1.30;;
2860;SDS011;1438;50.922;6.704;2023-07-20T12:35:31;1.50;;;1.40;;
2860;SDS011;1438;50.922;6.704;2023-07-20T12:37:57;2.60;;;1.33;;
2860;SDS011;1438;50.922;6.704;2023-07-20T12:40:24;2.53;;;1.20;;
2860;SDS011;1438;50.922;6.704;2023-07-20T12:42:49;1.30;;;1.20;;
2860;SDS011;1438;50.922;6.704;2023-07-20T12:45:15;8.30;;;1.10;;
2860;SDS011;1438;50.922;6.704;2023-07-20T12:47:41;1.20;;;1.10;;
2860;SDS011;1438;50.922;6.704;2023-07-20T12:50:08;1.87;;;1.20;;
2860;SDS011;1438;50.922;6.704;2023-07-20T12:52:38;2.33;;;1.30;;
2860;SDS011;1438;50.922;6.704;2023-07-20T12:55:05;3.53;;;1.67;;
2860;SDS011;1438;50.922;6.704;2023-07-20T12:57:31;2.53;;;1.40;;
2860;SDS011;1438;50.922;6.704;2023-07-20T12:59:57;4.20;;;1.60;;
2860;SDS011;1438;50.922;6.704;2023-07-20T13:02:23;3.27;;;1.57;;
2860;SDS011;1438;50.922;6.704;2023-07-20T13:04:49;1.60;;;1.23;;
2860;SDS011;1438;50.922;6.704;2023-07-20T13:07:14;1.90;;;1.30;;
2860;SDS011;1438;50.922;6.704;2023-07-20T13:09:40;2.30;;;1.90;;
2860;SDS011;1438;50.922;6.704;2023-07-20T13:12:05;1.30;;;1.20;;
2860;SDS011;1438;50.922;6.704;2023-07-20T13:14:31;3.63;;;1.50;;
2860;SDS011;1438;50.922;6.704;2023-07-20T13:16:57;1.37;;;1.27;;
2860;SDS011;1438;50.922;6.704;2023-07-20T13:19:24;4.30;;;1.47;;
2860;SDS011;1438;50.922;6.704;2023-07-20T13:21:49;1.47;;;1.30;;
2860;SDS011;1438;50.922;6.704;2023-07-20T13:24:15;1.30;;;1.20;;
2860;SDS011;1438;50.922;6.704;2023-07-20T13:26:42;1.87;;;1.20;;
2860;SDS011;1438;50.922;6.704;2023-07-20T13:29:07;4.40;;;1.40;;
2860;SDS011;1438;50.922;6.704;2023-07-20T13:31:33;1.43;;;1.27;;
2860;SDS011;1438;50.922;6.704;2023-07-20T13:33:58;2.20;;;1.17;;
2860;SDS011;1438;50.922;6.704;2023-07-20T13:36:24;2.60;;;1.30;;
2860;SDS011;1438;50.922;6.704;2023-07-20T13:38:50;1.73;;;1.10;;
2860;SDS011;1438;50.922;6.704;2023-07-20T13:41:15;1.07;;;0.97;;
2860;SDS011;1438;50.922;6.704;2023-07-20T13:43:43;3.77;;;1.40;;
2860;SDS011;1438;50.922;6.704;2023-07-20T13:46:09;1.60;;;1.50;;
2860;SDS011;1438;50.922;6.704;2023-07-20T13:48:35;1.90;;;1.37;;
2860;SDS011;1438;50.922;6.704;2023-07-20T13:51:00;1.60;;;1.50;;
2860;SDS011;1438;50.922;6.704;2023-07-20T13:53:26;1.83;;;1.30;;
2860;SDS011;1438;50.922;6.704;2023-07-20T13:55:52;1.67;;;1.27;;
2860;SDS011;1438;50.922;6.704;2023-07-20T13:58:18;2.40;;;1.57;;
2860;SDS011;1438;50.922;6.704;2023-07-20T14:00:44;3.87;;;1.73;;
2860;SDS011;1438;50.922;6.704;2023-07-20T14:03:09;1.20;;;1.10;;
2860;SDS011;1438;50.922;6.704;2023-07-20T14:05:35;3.90;;;1.57;;
2860;SDS011;1438;50.922;6.704;2023-07-20T14:08:00;1.73;;;1.60;;
2860;SDS011;1438;50.922;6.704;2023-07-20T14:10:26;3.70;;;1.30;;
2860;SDS011;1438;50.922;6.704;2023-07-20T14:12:51;1.73;;;1.33;;
2860;SDS011;1438;50.922;6.704;2023-07-20T14:15:17;4.47;;;1.50;;
2860;SDS011;1438;50.922;6.704;2023-07-20T14:17:44;1.83;;;1.30;;
2860;SDS011;1438;50.922;6.704;2023-07-20T14:20:09;1.57;;;1.23;;
2860;SDS011;1438;50.922;6.704;2023-07-20T14:22:35;2.40;;;1.13;;
2860;SDS011;1438;50.922;6.704;2023-07-20T14:25:02;1.50;;;1.13;;
2860;SDS011;1438;50.922;6.704;2023-07-20T14:27:27;1.47;;;1.27;;
2860;SDS011;1438;50.922;6.704;2023-07-20T14:29:53;4.03;;;1.30;;
2860;SDS011;1438;50.922;6.704;2023-07-20T14:32:20;2.87;;;1.50;;
2860;SDS011;1438;50.922;6.704;2023-07-20T14:34:45;3.47;;;1.43;;
2860;SDS011;1438;50.922;6.704;2023-07-20T14:37:11;1.37;;;1.27;;
2860;SDS011;1438;50.922;6.704;2023-07-20T14:39:38;2.33;;;1.30;;
2860;SDS011;1438;50.922;6.704;2023-07-20T14:42:03;1.40;;;1.20;;
2860;SDS011;1438;50.922;6.704;2023-07-20T14:44:29;2.30;;;1.43;;
2860;SDS011;1438;50.922;6.704;2023-07-20T14:46:55;1.40;;;1.30;;
2860;SDS011;1438;50.922;6.704;2023-07-20T14:49:21;1.40;;;1.30;;
2860;SDS011;1438;50.922;6.704;2023-07-20T14:51:46;1.47;;;1.37;;
2860;SDS011;1438;50.922;6.704;2023-07-20T14:54:12;2.93;;;1.37;;
2860;SDS011;1438;50.922;6.704;2023-07-20T14:56:38;1.50;;;1.03;;
2860;SDS011;1438;50.922;6.704;2023-07-20T14:59:05;4.00;;;1.40;;
2860;SDS011;1438;50.922;6.704;2023-07-20T15:01:31;4.50;;;1.60;;
2860;SDS011;1438;50.922;6.704;2023-07-20T15:03:57;1.33;;;1.10;;
2860;SDS011;1438;50.922;6.704;2023-07-20T15:06:26;2.00;;;1.20;;
2860;SDS011;1438;50.922;6.704;2023-07-20T15:08:51;1.23;;;1.07;;
2860;SDS011;1438;50.922;6.704;2023-07-20T15:11:17;1.80;;;1.13;;
2860;SDS011;1438;50.922;6.704;2023-07-20T15:13:43;3.53;;;1.10;;
2860;SDS011;1438;50.922;6.704;2023-07-20T15:16:08;2.07;;;1.30;;
2860;SDS011;1438;50.922;6.704;2023-07-20T15:18:36;1.47;;;1.10;;
2860;SDS011;1438;50.922;6.704;2023-07-20T15:21:01;1.70;;;1.20;;
2860;SDS011;1438;50.922;6.704;2023-07-20T15:23:27;2.13;;;1.33;;
2860;SDS011;1438;50.922;6.704;2023-07-20T15:25:53;2.20;;;1.17;;
2860;SDS011;1438;50.922;6.704;2023-07-20T15:28:18;3.80;;;1.63;;
2860;SDS011;1438;50.922;6.704;2023-07-20T15:30:44;2.83;;;1.30;;
2860;SDS011;1438;50.922;6.704;2023-07-20T15:33:09;3.10;;;1.50;;
2860;SDS011;1438;50.922;6.704;2023-07-20T15:35:35;2.13;;;1.07;;